Time,TemperatureF,DewpointF,PressureIn,WindDirection,WindDirectionDegrees,WindSpeedMPH,WindSpeedGustMPH,Humidity,HourlyPrecipIn,Conditions,Clouds,dailyrainin,SoftwareType,DateUTC
2013-03-08 00:01:00,32.7,25.0,0.00,North,0,0.0,0.0,73,0.00,,,0.00,WUHU21623XXSP,2013-03-08 05:01:00,
2013-03-08 00:06:00,32.7,25.0,0.00,North,0,0.0,0.0,73,0.00,,,0.00,WUHU21623XXSP,2013-03-08 05:06:00,
2013-03-08 00:11:00,32.5,25.0,0.00,North,0,0.0,0.0,73,0.00,,,0.00,WUHU21623XXSP,2013-03-08 05:11:00,
2013-03-08 00:16:00,32.5,25.1,0.00,North,0,0.0,0.0,74,0.00,,,0.00,WUHU21623XXSP,2013-03-08 05:16:00,
2013-03-08 00:21:00,32.5,25.1,0.00,North,0,0.0,0.0,74,0.00,,,0.00,WUHU21623XXSP,2013-03-08 05:21:00,
2013-03-08 00:26:00,32.5,25.1,0.00,North,0,0.0,0.0,74,0.00,,,0.00,WUHU21623XXSP,2013-03-08 05:26:00,
2013-03-08 00:31:00,32.5,25.1,0.00,North,0,0.0,0.0,74,0.00,,,0.00,WUHU21623XXSP,2013-03-08 05:31:00,
2013-03-08 00:36:00,32.5,25.1,0.00,North,0,0.0,0.0,74,0.00,,,0.00,WUHU21623XXSP,2013-03-08 05:36:00,
2013-03-08 00:41:00,32.4,25.0,0.00,North,0,0.0,0.0,74,0.00,,,0.00,WUHU21623XXSP,2013-03-08 05:41:00,
2013-03-08 00:46:00,32.5,25.1,0.00,North,0,0.0,0.0,74,0.00,,,0.00,WUHU21623XXSP,2013-03-08 05:46:00,
2013-03-08 00:51:00,32.7,25.3,0.00,North,0,0.0,0.0,74,0.00,,,0.00,WUHU21623XXSP,2013-03-08 05:51:00,
2013-03-08 00:56:00,33.1,25.6,0.00,North,0,0.0,0.0,74,0.00,,,0.00,WUHU21623XXSP,2013-03-08 05:56:00,
2013-03-08 01:01:00,33.4,26.0,0.00,North,0,0.0,0.0,74,0.00,,,0.00,WUHU21623XXSP,2013-03-08 06:01:00,
2013-03-08 01:06:00,33.4,26.0,0.00,North,0,0.0,0.0,74,0.00,,,0.00,WUHU21623XXSP,2013-03-08 06:06:00,
2013-03-08 01:11:00,33.4,26.0,0.00,North,0,0.0,0.0,74,0.00,,,0.00,WUHU21623XXSP,2013-03-08 06:11:00,
2013-03-08 01:16:00,33.4,26.0,0.00,North,0,0.0,0.0,74,0.00,,,0.00,WUHU21623XXSP,2013-03-08 06:16:00,
2013-03-08 01:21:00,33.4,26.0,0.00,North,0,0.0,0.0,74,0.00,,,0.00,WUHU21623XXSP,2013-03-08 06:21:00,
2013-03-08 01:26:00,33.4,26.0,0.00,North,0,0.0,0.0,74,0.00,,,0.00,WUHU21623XXSP,2013-03-08 06:26:00,
2013-03-08 01:31:00,33.4,26.0,0.00,North,0,0.0,0.0,74,0.00,,,0.00,WUHU21623XXSP,2013-03-08 06:31:00,
2013-03-08 01:36:00,33.6,26.1,0.00,North,0,0.0,0.0,74,0.00,,,0.00,WUHU21623XXSP,2013-03-08 06:36:00,
2013-03-08 01:41:00,33.6,26.1,0.00,North,0,0.0,0.0,74,0.00,,,0.00,WUHU21623XXSP,2013-03-08 06:41:00,
2013-03-08 01:46:00,33.6,26.1,0.00,North,0,0.0,0.0,74,0.00,,,0.00,WUHU21623XXSP,2013-03-08 06:46:00,
2013-03-08 01:51:00,33.6,26.1,0.00,North,0,0.0,0.0,74,0.00,,,0.00,WUHU21623XXSP,2013-03-08 06:51:00,
2013-03-08 01:56:00,33.4,26.0,0.00,North,0,0.0,0.0,74,0.00,,,0.00,WUHU21623XXSP,2013-03-08 06:56:00,
2013-03-08 02:01:00,33.4,26.0,0.00,North,0,0.0,0.0,74,0.00,,,0.00,WUHU21623XXSP,2013-03-08 07:01:00,
2013-03-08 02:06:00,33.3,25.8,0.00,North,0,0.0,0.0,74,0.00,,,0.00,WUHU21623XXSP,2013-03-08 07:06:00,
2013-03-08 02:11:00,33.3,25.8,0.00,North,0,0.0,0.0,74,0.00,,,0.00,WUHU21623XXSP,2013-03-08 07:11:00,
2013-03-08 02:16:00,33.3,25.8,0.00,North,0,0.0,0.0,74,0.00,,,0.00,WUHU21623XXSP,2013-03-08 07:16:00,
2013-03-08 02:21:00,33.4,25.8,0.00,North,0,0.0,0.0,74,0.00,,,0.00,WUHU21623XXSP,2013-03-08 07:21:00,
2013-03-08 02:26:00,33.4,26.0,0.00,North,0,0.0,0.0,74,0.00,,,0.00,WUHU21623XXSP,2013-03-08 07:26:00,
2013-03-08 02:31:00,33.8,26.1,0.00,North,0,0.0,0.0,74,0.00,,,0.00,WUHU21623XXSP,2013-03-08 07:31:00,
2013-03-08 02:36:00,34.2,26.5,0.00,North,0,0.0,0.0,74,0.00,,,0.00,WUHU21623XXSP,2013-03-08 07:36:00,
2013-03-08 02:41:00,34.3,26.8,0.00,North,0,0.0,0.0,74,0.00,,,0.00,WUHU21623XXSP,2013-03-08 07:41:00,
2013-03-08 02:46:00,34.5,27.0,0.00,North,0,0.0,0.0,74,0.00,,,0.00,WUHU21623XXSP,2013-03-08 07:46:00,
2013-03-08 02:51:00,34.7,27.2,0.00,North,0,0.0,0.0,74,0.00,,,0.00,WUHU21623XXSP,2013-03-08 07:51:00,
2013-03-08 02:56:00,34.7,27.2,0.00,North,0,0.0,0.0,74,0.00,,,0.00,WUHU21623XXSP,2013-03-08 07:56:00,
2013-03-08 03:01:00,34.7,26.9,0.00,North,0,0.0,0.0,73,0.00,,,0.00,WUHU21623XXSP,2013-03-08 08:01:00,
2013-03-08 03:06:00,34.5,26.7,0.00,North,0,0.0,0.0,73,0.00,,,0.00,WUHU21623XXSP,2013-03-08 08:06:00,
2013-03-08 03:11:00,34.3,26.5,0.00,North,0,0.0,0.0,73,0.00,,,0.00,WUHU21623XXSP,2013-03-08 08:11:00,
2013-03-08 03:16:00,34.2,26.5,0.00,North,0,0.0,0.0,73,0.00,,,0.00,WUHU21623XXSP,2013-03-08 08:16:00,
2013-03-08 03:22:00,34.0,26.5,0.00,North,0,0.0,0.0,74,0.00,,,0.00,WUHU21623XXSP,2013-03-08 08:22:00,
2013-03-08 03:27:00,33.6,26.1,0.00,North,0,0.0,0.0,74,0.00,,,0.00,WUHU21623XXSP,2013-03-08 08:27:00,
2013-03-08 03:32:00,33.4,26.1,0.00,North,0,0.0,0.0,74,0.00,,,0.00,WUHU21623XXSP,2013-03-08 08:32:00,
2013-03-08 03:37:00,33.4,26.0,0.00,North,0,0.0,0.0,74,0.00,,,0.00,WUHU21623XXSP,2013-03-08 08:37:00,
2013-03-08 03:42:00,33.3,25.8,0.00,North,0,0.0,0.0,74,0.00,,,0.00,WUHU21623XXSP,2013-03-08 08:42:00,
2013-03-08 03:47:00,33.1,25.6,0.00,North,0,0.0,0.0,74,0.00,,,0.00,WUHU21623XXSP,2013-03-08 08:47:00,
2013-03-08 03:52:00,33.1,25.6,0.00,North,0,0.0,0.0,74,0.00,,,0.00,WUHU21623XXSP,2013-03-08 08:52:00,
2013-03-08 03:57:00,32.9,25.6,0.00,North,0,0.0,0.0,74,0.00,,,0.00,WUHU21623XXSP,2013-03-08 08:57:00,
2013-03-08 04:02:00,32.7,25.5,0.00,North,0,0.0,0.0,74,0.00,,,0.00,WUHU21623XXSP,2013-03-08 09:02:00,
2013-03-08 04:07:00,32.7,25.3,0.00,North,0,0.0,0.0,74,0.00,,,0.00,WUHU21623XXSP,2013-03-08 09:07:00,
2013-03-08 04:12:00,32.7,25.6,0.00,North,0,0.0,0.0,75,0.00,,,0.00,WUHU21623XXSP,2013-03-08 09:12:00,
2013-03-08 04:17:00,32.5,25.5,0.00,North,0,0.0,0.0,75,0.00,,,0.00,WUHU21623XXSP,2013-03-08 09:17:00,
2013-03-08 04:22:00,32.5,25.5,0.00,North,0,0.0,0.0,75,0.00,,,0.00,WUHU21623XXSP,2013-03-08 09:22:00,
2013-03-08 04:27:00,32.4,25.3,0.00,North,0,0.0,0.0,75,0.00,,,0.00,WUHU21623XXSP,2013-03-08 09:27:00,
2013-03-08 04:32:00,32.2,25.3,0.00,North,0,0.0,0.0,75,0.00,,,0.00,WUHU21623XXSP,2013-03-08 09:32:00,
2013-03-08 04:37:00,32.2,25.1,0.00,North,0,0.0,0.0,75,0.00,,,0.00,WUHU21623XXSP,2013-03-08 09:37:00,
2013-03-08 04:42:00,32.2,25.1,0.00,North,0,0.0,0.0,75,0.00,,,0.00,WUHU21623XXSP,2013-03-08 09:42:00,
2013-03-08 04:47:00,32.2,25.1,0.00,North,0,0.0,0.0,75,0.00,,,0.00,WUHU21623XXSP,2013-03-08 09:47:00,
2013-03-08 04:52:00,31.8,24.8,0.00,North,0,0.0,0.0,75,0.00,,,0.00,WUHU21623XXSP,2013-03-08 09:52:00,
2013-03-08 04:57:00,31.6,24.6,0.00,North,0,0.0,0.0,75,0.00,,,0.00,WUHU21623XXSP,2013-03-08 09:57:00,
2013-03-08 05:02:00,31.6,24.6,0.00,North,0,0.0,0.0,75,0.00,,,0.00,WUHU21623XXSP,2013-03-08 10:02:00,
2013-03-08 05:07:00,31.6,24.9,0.00,North,0,0.0,0.0,76,0.00,,,0.00,WUHU21623XXSP,2013-03-08 10:07:00,
2013-03-08 05:12:00,31.8,24.8,0.00,North,0,0.0,0.0,75,0.00,,,0.00,WUHU21623XXSP,2013-03-08 10:12:00,
2013-03-08 05:17:00,31.8,24.8,0.00,North,0,0.0,0.0,75,0.00,,,0.00,WUHU21623XXSP,2013-03-08 10:17:00,
2013-03-08 05:22:00,32.4,25.6,0.00,North,0,0.0,0.0,76,0.00,,,0.00,WUHU21623XXSP,2013-03-08 10:22:00,
2013-03-08 05:27:00,33.1,26.0,0.00,North,0,0.0,0.0,75,0.00,,,0.00,WUHU21623XXSP,2013-03-08 10:27:00,
2013-03-08 05:32:00,33.3,25.8,0.00,North,0,0.0,0.0,74,0.00,,,0.00,WUHU21623XXSP,2013-03-08 10:32:00,
2013-03-08 05:37:00,33.6,26.1,0.00,North,0,0.0,0.0,74,0.00,,,0.00,WUHU21623XXSP,2013-03-08 10:37:00,
2013-03-08 05:42:00,33.6,25.8,0.00,North,0,0.0,0.0,73,0.00,,,0.00,WUHU21623XXSP,2013-03-08 10:42:00,
2013-03-08 05:47:00,33.6,25.8,0.00,North,0,0.0,0.0,73,0.00,,,0.00,WUHU21623XXSP,2013-03-08 10:47:00,
2013-03-08 05:52:00,33.8,25.8,0.00,North,0,0.0,0.0,73,0.00,,,0.00,WUHU21623XXSP,2013-03-08 10:52:00,
2013-03-08 05:57:00,34.0,25.8,0.00,North,0,0.0,0.0,72,0.00,,,0.00,WUHU21623XXSP,2013-03-08 10:57:00,
2013-03-08 06:02:00,34.2,25.7,0.00,North,0,0.0,0.0,71,0.00,,,0.00,WUHU21623XXSP,2013-03-08 11:02:00,
2013-03-08 06:07:00,34.3,25.8,0.00,North,0,0.0,0.0,71,0.00,,,0.00,WUHU21623XXSP,2013-03-08 11:07:00,
2013-03-08 06:12:00,34.3,25.5,0.00,North,0,0.0,0.0,70,0.00,,,0.00,WUHU21623XXSP,2013-03-08 11:12:00,
2013-03-08 06:17:00,34.3,25.5,0.00,North,0,0.0,0.0,70,0.00,,,0.00,WUHU21623XXSP,2013-03-08 11:17:00,
2013-03-08 06:22:00,34.3,25.5,0.00,North,0,0.0,0.0,70,0.00,,,0.00,WUHU21623XXSP,2013-03-08 11:22:00,
2013-03-08 06:27:00,34.5,25.3,0.00,North,0,0.0,0.0,69,0.00,,,0.00,WUHU21623XXSP,2013-03-08 11:27:00,
2013-03-08 06:32:00,34.5,25.3,0.00,North,0,0.0,0.0,69,0.00,,,0.00,WUHU21623XXSP,2013-03-08 11:32:00,
2013-03-08 06:37:00,34.5,25.3,0.00,North,0,0.0,0.0,69,0.00,,,0.00,WUHU21623XXSP,2013-03-08 11:37:00,
2013-03-08 06:42:00,34.5,25.3,0.00,North,0,0.0,0.0,68,0.00,,,0.00,WUHU21623XXSP,2013-03-08 11:42:00,
2013-03-08 06:47:00,34.7,25.0,0.00,North,0,0.0,0.0,68,0.00,,,0.00,WUHU21623XXSP,2013-03-08 11:47:00,
2013-03-08 06:52:00,34.7,25.2,0.00,North,0,0.0,0.0,68,0.00,,,0.00,WUHU21623XXSP,2013-03-08 11:52:00,
2013-03-08 06:57:00,34.7,25.2,0.00,North,0,0.0,0.0,68,0.00,,,0.00,WUHU21623XXSP,2013-03-08 11:57:00,
2013-03-08 07:02:00,34.9,25.3,0.00,North,0,0.0,0.0,68,0.00,,,0.00,WUHU21623XXSP,2013-03-08 12:02:00,
2013-03-08 07:07:00,34.9,25.3,0.00,North,0,0.0,0.0,68,0.00,,,0.00,WUHU21623XXSP,2013-03-08 12:07:00,
2013-03-08 07:12:00,34.9,25.3,0.00,North,0,0.0,0.0,68,0.00,,,0.00,WUHU21623XXSP,2013-03-08 12:12:00,
2013-03-08 07:17:00,35.1,25.5,0.00,North,0,0.0,0.0,68,0.00,,,0.00,WUHU21623XXSP,2013-03-08 12:17:00,
2013-03-08 07:22:00,35.2,25.3,0.00,North,0,0.0,0.0,67,0.00,,,0.00,WUHU21623XXSP,2013-03-08 12:22:00,
2013-03-08 07:27:00,35.2,25.3,0.00,North,0,0.0,0.0,67,0.00,,,0.00,WUHU21623XXSP,2013-03-08 12:27:00,
2013-03-08 07:32:00,35.2,25.3,0.00,North,0,0.0,0.0,67,0.00,,,0.00,WUHU21623XXSP,2013-03-08 12:32:00,
2013-03-08 07:37:00,35.2,25.3,0.00,North,0,0.0,0.0,67,0.00,,,0.00,WUHU21623XXSP,2013-03-08 12:37:00,
2013-03-08 07:49:00,35.8,25.9,0.00,North,0,0.0,0.0,67,0.00,,,0.00,WUHU21623XXSP,2013-03-08 12:49:00,
2013-03-08 07:54:00,35.8,25.9,0.00,North,0,0.0,0.0,67,0.00,,,0.00,WUHU21623XXSP,2013-03-08 12:54:00,
2013-03-08 07:59:00,36.0,26.0,0.00,North,0,0.0,0.0,67,0.00,,,0.00,WUHU21623XXSP,2013-03-08 12:59:00,
2013-03-08 08:04:00,36.1,26.2,0.00,North,0,0.0,0.0,67,0.00,,,0.00,WUHU21623XXSP,2013-03-08 13:04:00,
2013-03-08 08:09:00,36.3,26.4,0.00,North,0,0.0,0.0,67,0.00,,,0.00,WUHU21623XXSP,2013-03-08 13:09:00,
2013-03-08 08:14:00,36.3,26.4,0.00,North,0,0.0,0.0,67,0.00,,,0.00,WUHU21623XXSP,2013-03-08 13:14:00,
2013-03-08 08:19:00,36.7,26.7,0.00,North,0,0.0,0.0,67,0.00,,,0.00,WUHU21623XXSP,2013-03-08 13:19:00,
2013-03-08 08:24:00,37.0,27.1,0.00,North,0,0.0,0.0,67,0.00,,,0.00,WUHU21623XXSP,2013-03-08 13:24:00,
2013-03-08 08:29:00,37.2,27.3,0.00,North,0,0.0,0.0,67,0.00,,,0.00,WUHU21623XXSP,2013-03-08 13:29:00,
2013-03-08 08:34:00,37.4,27.1,0.00,North,0,0.0,0.0,66,0.00,,,0.00,WUHU21623XXSP,2013-03-08 13:34:00,
2013-03-08 08:39:00,37.8,27.4,0.00,North,0,0.0,0.0,66,0.00,,,0.00,WUHU21623XXSP,2013-03-08 13:39:00,
2013-03-08 08:44:00,37.9,27.6,0.00,North,0,0.0,0.0,66,0.00,,,0.00,WUHU21623XXSP,2013-03-08 13:44:00,
2013-03-08 08:49:00,38.1,27.7,0.00,North,0,0.0,0.0,66,0.00,,,0.00,WUHU21623XXSP,2013-03-08 13:49:00,
2013-03-08 08:54:00,38.1,27.7,0.00,North,0,0.0,0.0,66,0.00,,,0.00,WUHU21623XXSP,2013-03-08 13:54:00,
2013-03-08 08:59:00,38.7,27.7,0.00,North,0,0.0,0.0,65,0.00,,,0.00,WUHU21623XXSP,2013-03-08 13:59:00,
2013-03-08 09:04:00,39.0,27.8,0.00,North,0,0.0,0.0,64,0.00,,,0.00,WUHU21623XXSP,2013-03-08 14:04:00,
2013-03-08 09:09:00,39.6,28.3,0.00,North,0,0.0,0.0,64,0.00,,,0.00,WUHU21623XXSP,2013-03-08 14:09:00,
2013-03-08 09:14:00,39.7,27.7,0.00,North,0,0.0,0.0,62,0.00,,,0.00,WUHU21623XXSP,2013-03-08 14:14:00,
2013-03-08 09:19:00,39.9,27.9,0.00,North,0,0.0,0.0,62,0.00,,,0.00,WUHU21623XXSP,2013-03-08 14:19:00,
2013-03-08 09:24:00,39.9,27.5,0.00,North,0,0.0,0.0,61,0.00,,,0.00,WUHU21623XXSP,2013-03-08 14:24:00,
2013-03-08 09:29:00,40.3,27.9,0.00,North,0,0.0,0.0,61,0.00,,,0.00,WUHU21623XXSP,2013-03-08 14:29:00,
2013-03-08 09:34:00,40.3,27.9,0.00,North,0,0.0,0.0,61,0.00,,,0.00,WUHU21623XXSP,2013-03-08 14:34:00,
2013-03-08 09:39:00,40.6,27.9,0.00,North,0,0.0,0.0,60,0.00,,,0.00,WUHU21623XXSP,2013-03-08 14:39:00,
2013-03-08 09:44:00,40.6,27.4,0.00,North,0,0.0,0.0,59,0.00,,,0.00,WUHU21623XXSP,2013-03-08 14:44:00,
2013-03-08 09:49:00,40.6,27.4,0.00,North,0,0.0,0.0,59,0.00,,,0.00,WUHU21623XXSP,2013-03-08 14:49:00,
2013-03-08 09:54:00,40.8,27.6,0.00,North,0,0.0,0.0,59,0.00,,,0.00,WUHU21623XXSP,2013-03-08 14:54:00,
2013-03-08 09:59:00,40.8,27.6,0.00,North,0,0.0,0.0,59,0.00,,,0.00,WUHU21623XXSP,2013-03-08 14:59:00,
2013-03-08 10:04:00,40.8,27.6,0.00,North,0,0.0,0.0,59,0.00,,,0.00,WUHU21623XXSP,2013-03-08 15:04:00,
2013-03-08 10:09:00,40.8,27.6,0.00,North,0,0.0,0.0,59,0.00,,,0.00,WUHU21623XXSP,2013-03-08 15:09:00,
2013-03-08 10:14:00,41.0,27.3,0.00,North,0,0.0,0.0,58,0.00,,,0.00,WUHU21623XXSP,2013-03-08 15:14:00,
2013-03-08 10:19:00,41.2,27.9,0.00,North,0,0.0,0.0,59,0.00,,,0.00,WUHU21623XXSP,2013-03-08 15:19:00,
2013-03-08 10:24:00,41.4,28.1,0.00,North,0,0.0,0.0,59,0.00,,,0.00,WUHU21623XXSP,2013-03-08 15:24:00,
2013-03-08 10:29:00,41.5,27.8,0.00,North,0,0.0,0.0,58,0.00,,,0.00,WUHU21623XXSP,2013-03-08 15:29:00,
2013-03-08 10:34:00,41.5,27.8,0.00,North,0,0.0,0.0,58,0.00,,,0.00,WUHU21623XXSP,2013-03-08 15:34:00,
2013-03-08 10:39:00,41.7,27.8,0.00,North,0,0.0,0.0,58,0.00,,,0.00,WUHU21623XXSP,2013-03-08 15:39:00,
2013-03-08 10:44:00,41.9,27.7,0.00,North,0,0.0,0.0,57,0.00,,,0.00,WUHU21623XXSP,2013-03-08 15:44:00,
2013-03-08 10:49:00,42.1,27.9,0.00,North,0,0.0,0.0,57,0.00,,,0.00,WUHU21623XXSP,2013-03-08 15:49:00,
2013-03-08 10:54:00,42.4,28.2,0.00,North,0,0.0,0.0,57,0.00,,,0.00,WUHU21623XXSP,2013-03-08 15:54:00,
2013-03-08 10:59:00,43.0,28.8,0.00,North,0,0.0,0.0,57,0.00,,,0.00,WUHU21623XXSP,2013-03-08 15:59:00,
2013-03-08 11:09:00,43.3,29.5,0.00,North,0,0.0,0.0,58,0.00,,,0.00,WUHU21623XXSP,2013-03-08 16:09:00,
2013-03-08 11:14:00,43.7,29.4,0.00,North,0,0.0,0.0,57,0.00,,,0.00,WUHU21623XXSP,2013-03-08 16:14:00,
2013-03-08 11:19:00,43.9,29.4,0.00,North,0,0.0,0.0,57,0.00,,,0.00,WUHU21623XXSP,2013-03-08 16:19:00,
2013-03-08 11:24:00,44.2,29.9,0.00,North,0,0.0,0.0,57,0.00,,,0.00,WUHU21623XXSP,2013-03-08 16:24:00,
2013-03-08 11:29:00,44.4,29.7,0.00,North,0,0.0,0.0,56,0.00,,,0.00,WUHU21623XXSP,2013-03-08 16:29:00,
2013-03-08 11:34:00,44.4,29.7,0.00,North,0,0.0,0.0,56,0.00,,,0.00,WUHU21623XXSP,2013-03-08 16:34:00,
2013-03-08 11:39:00,44.6,30.3,0.00,North,0,0.0,0.0,56,0.00,,,0.00,WUHU21623XXSP,2013-03-08 16:39:00,
2013-03-08 11:44:00,44.4,29.8,0.00,North,0,0.0,0.0,56,0.00,,,0.00,WUHU21623XXSP,2013-03-08 16:44:00,
2013-03-08 11:49:00,44.8,30.0,0.00,North,0,0.0,0.0,56,0.00,,,0.00,WUHU21623XXSP,2013-03-08 16:49:00,
2013-03-08 11:54:00,45.0,30.2,0.00,North,0,0.0,0.0,56,0.00,,,0.00,WUHU21623XXSP,2013-03-08 16:54:00,
2013-03-08 11:59:00,45.1,29.9,0.00,North,0,0.0,0.0,55,0.00,,,0.00,WUHU21623XXSP,2013-03-08 16:59:00,
2013-03-08 12:09:00,45.3,30.0,0.00,North,0,0.0,0.0,55,0.00,,,0.00,WUHU21623XXSP,2013-03-08 17:09:00,
2013-03-08 12:14:00,45.7,30.2,0.00,North,0,0.0,0.0,56,0.00,,,0.00,WUHU21623XXSP,2013-03-08 17:14:00,
2013-03-08 12:19:00,45.9,30.5,0.00,North,0,0.0,0.0,55,0.00,,,0.00,WUHU21623XXSP,2013-03-08 17:19:00,
2013-03-08 12:24:00,46.2,30.8,0.00,North,0,0.0,0.0,55,0.00,,,0.00,WUHU21623XXSP,2013-03-08 17:24:00,
2013-03-08 12:29:00,46.2,30.6,0.00,North,0,0.0,0.0,55,0.00,,,0.00,WUHU21623XXSP,2013-03-08 17:29:00,
2013-03-08 12:34:00,46.4,31.0,0.00,North,0,0.0,0.0,55,0.00,,,0.00,WUHU21623XXSP,2013-03-08 17:34:00,
2013-03-08 12:39:00,46.6,31.2,0.00,North,0,0.0,0.0,55,0.00,,,0.00,WUHU21623XXSP,2013-03-08 17:39:00,
2013-03-08 12:45:00,46.6,30.7,0.00,North,0,0.0,0.0,54,0.00,,,0.00,WUHU21623XXSP,2013-03-08 17:45:00,
2013-03-08 12:50:00,46.6,30.7,0.00,North,0,0.0,0.0,54,0.00,,,0.00,WUHU21623XXSP,2013-03-08 17:50:00,
2013-03-08 12:55:00,46.2,29.9,0.00,North,0,0.0,0.0,54,0.00,,,0.00,WUHU21623XXSP,2013-03-08 17:55:00,
2013-03-08 13:00:00,46.2,30.4,0.00,North,0,0.0,0.0,54,0.00,,,0.00,WUHU21623XXSP,2013-03-08 18:00:00,
2013-03-08 13:09:00,46.4,30.6,0.00,North,0,0.0,0.0,55,0.00,,,0.00,WUHU21623XXSP,2013-03-08 18:09:00,
2013-03-08 13:14:00,46.9,31.4,0.00,North,0,0.0,0.0,55,0.00,,,0.00,WUHU21623XXSP,2013-03-08 18:14:00,
2013-03-08 13:19:00,46.9,31.4,0.00,North,0,0.0,0.0,55,0.00,,,0.00,WUHU21623XXSP,2013-03-08 18:19:00,
2013-03-08 13:24:00,46.8,30.9,0.00,North,0,0.0,0.0,54,0.00,,,0.00,WUHU21623XXSP,2013-03-08 18:24:00,
2013-03-08 13:29:00,46.6,30.7,0.00,North,0,0.0,0.0,54,0.00,,,0.00,WUHU21623XXSP,2013-03-08 18:29:00,
2013-03-08 13:34:00,46.6,30.7,0.00,North,0,0.0,0.0,54,0.00,,,0.00,WUHU21623XXSP,2013-03-08 18:34:00,
2013-03-08 13:39:00,46.8,31.4,0.00,North,0,0.0,0.0,55,0.00,,,0.00,WUHU21623XXSP,2013-03-08 18:39:00,
2013-03-08 13:44:00,47.1,31.7,0.00,North,0,0.0,0.0,55,0.00,,,0.00,WUHU21623XXSP,2013-03-08 18:44:00,
2013-03-08 13:49:00,47.1,31.7,0.00,North,0,0.0,0.0,55,0.00,,,0.00,WUHU21623XXSP,2013-03-08 18:49:00,
2013-03-08 13:54:00,46.9,30.6,0.00,North,0,0.0,0.0,53,0.00,,,0.00,WUHU21623XXSP,2013-03-08 18:54:00,
2013-03-08 13:59:00,46.6,30.4,0.00,North,0,0.0,0.0,53,0.00,,,0.00,WUHU21623XXSP,2013-03-08 18:59:00,
2013-03-08 14:09:00,46.2,29.9,0.00,North,0,0.0,0.0,53,0.00,,,0.00,WUHU21623XXSP,2013-03-08 19:09:00,
2013-03-08 14:14:00,46.2,30.4,0.00,North,0,0.0,0.0,54,0.00,,,0.00,WUHU21623XXSP,2013-03-08 19:14:00,
2013-03-08 14:19:00,46.2,30.4,0.00,North,0,0.0,0.0,54,0.00,,,0.00,WUHU21623XXSP,2013-03-08 19:19:00,
2013-03-08 14:25:00,46.0,30.7,0.00,North,0,0.0,0.0,55,0.00,,,0.00,WUHU21623XXSP,2013-03-08 19:25:00,
2013-03-08 14:30:00,46.0,30.7,0.00,North,0,0.0,0.0,55,0.00,,,0.00,WUHU21623XXSP,2013-03-08 19:30:00,
2013-03-08 14:35:00,46.0,30.7,0.00,North,0,0.0,0.0,55,0.00,,,0.00,WUHU21623XXSP,2013-03-08 19:35:00,
2013-03-08 14:40:00,46.0,30.7,0.00,North,0,0.0,0.0,55,0.00,,,0.00,WUHU21623XXSP,2013-03-08 19:40:00,
2013-03-08 14:45:00,46.2,30.7,0.00,North,0,0.0,0.0,55,0.00,,,0.00,WUHU21623XXSP,2013-03-08 19:45:00,
2013-03-08 14:50:00,46.2,30.4,0.00,North,0,0.0,0.0,54,0.00,,,0.00,WUHU21623XXSP,2013-03-08 19:50:00,
2013-03-08 14:55:00,46.2,30.4,0.00,North,0,0.0,0.0,54,0.00,,,0.00,WUHU21623XXSP,2013-03-08 19:55:00,
2013-03-08 15:00:00,46.2,30.4,0.00,North,0,0.0,0.0,54,0.00,,,0.00,WUHU21623XXSP,2013-03-08 20:00:00,
2013-03-08 15:09:00,46.4,30.6,0.00,North,0,0.0,0.0,54,0.00,,,0.00,WUHU21623XXSP,2013-03-08 20:09:00,
2013-03-08 15:14:00,46.4,30.6,0.00,North,0,0.0,0.0,55,0.00,,,0.00,WUHU21623XXSP,2013-03-08 20:14:00,
2013-03-08 15:19:00,46.4,31.0,0.00,North,0,0.0,0.0,55,0.00,,,0.00,WUHU21623XXSP,2013-03-08 20:19:00,
2013-03-08 15:25:00,46.6,30.7,0.00,North,0,0.0,0.0,54,0.00,,,0.00,WUHU21623XXSP,2013-03-08 20:25:00,
2013-03-08 15:30:00,46.6,30.7,0.00,North,0,0.0,0.0,54,0.00,,,0.00,WUHU21623XXSP,2013-03-08 20:30:00,
2013-03-08 15:35:00,46.9,30.9,0.00,North,0,0.0,0.0,54,0.00,,,0.00,WUHU21623XXSP,2013-03-08 20:35:00,
2013-03-08 15:40:00,46.9,31.1,0.00,North,0,0.0,0.0,54,0.00,,,0.00,WUHU21623XXSP,2013-03-08 20:40:00,
2013-03-08 16:12:00,47.7,31.9,0.00,North,0,114.1,114.1,54,0.00,,,0.00,WUHU21623XXSP,2013-03-08 21:12:00,
2013-03-08 17:12:00,49.6,32.2,0.00,North,0,114.1,114.1,51,0.00,,,0.00,WUHU21623XXSP,2013-03-08 22:12:00,
2013-03-08 18:12:00,43.3,29.1,0.00,North,0,114.1,114.1,57,0.00,,,0.00,WUHU21623XXSP,2013-03-08 23:12:00,
2013-03-08 19:34:00,40.8,28.4,0.00,North,0,0.0,0.0,61,0.00,,,0.00,WUHU21623XXSP,2013-03-09 00:34:00,
2013-03-08 19:41:00,40.6,28.2,0.00,North,0,0.0,0.0,61,0.00,,,0.00,WUHU21623XXSP,2013-03-09 00:41:00,
2013-03-08 19:46:00,40.3,27.9,0.00,North,0,0.0,0.0,61,0.00,,,0.00,WUHU21623XXSP,2013-03-09 00:46:00,
2013-03-08 19:51:00,40.1,27.7,0.00,North,0,0.0,0.0,62,0.00,,,0.00,WUHU21623XXSP,2013-03-09 00:51:00,
2013-03-08 19:56:00,39.9,27.9,0.00,North,0,0.0,0.0,62,0.00,,,0.00,WUHU21623XXSP,2013-03-09 00:56:00,
2013-03-08 20:01:00,39.7,27.7,0.00,North,0,0.0,0.0,62,0.00,,,0.00,WUHU21623XXSP,2013-03-09 01:01:00,
2013-03-08 20:06:00,39.4,27.7,0.00,North,0,0.0,0.0,63,0.00,,,0.00,WUHU21623XXSP,2013-03-09 01:06:00,
2013-03-08 20:11:00,39.4,27.7,0.00,North,0,0.0,0.0,63,0.00,,,0.00,WUHU21623XXSP,2013-03-09 01:11:00,
2013-03-08 20:16:00,39.0,27.7,0.00,North,0,0.0,0.0,63,0.00,,,0.00,WUHU21623XXSP,2013-03-09 01:16:00,
2013-03-08 20:21:00,39.0,27.4,0.00,North,0,0.0,0.0,63,0.00,,,0.00,WUHU21623XXSP,2013-03-09 01:21:00,
2013-03-08 20:26:00,38.5,27.3,0.00,North,0,0.0,0.0,64,0.00,,,0.00,WUHU21623XXSP,2013-03-09 01:26:00,
2013-03-08 20:31:00,38.5,27.3,0.00,North,0,0.0,0.0,64,0.00,,,0.00,WUHU21623XXSP,2013-03-09 01:31:00,
2013-03-08 20:36:00,38.3,27.3,0.00,North,0,0.0,0.0,64,0.00,,,0.00,WUHU21623XXSP,2013-03-09 01:36:00,
2013-03-08 20:41:00,38.1,27.5,0.00,North,0,0.0,0.0,65,0.00,,,0.00,WUHU21623XXSP,2013-03-09 01:41:00,
2013-03-08 20:46:00,38.1,27.3,0.00,North,0,0.0,0.0,65,0.00,,,0.00,WUHU21623XXSP,2013-03-09 01:46:00,
2013-03-08 20:51:00,38.1,27.3,0.00,North,0,0.0,0.0,65,0.00,,,0.00,WUHU21623XXSP,2013-03-09 01:51:00,
2013-03-08 20:56:00,38.1,27.3,0.00,North,0,0.0,0.0,65,0.00,,,0.00,WUHU21623XXSP,2013-03-09 01:56:00,
2013-03-08 21:01:00,38.1,27.3,0.00,North,0,0.0,0.0,65,0.00,,,0.00,WUHU21623XXSP,2013-03-09 02:01:00,
2013-03-08 21:06:00,37.9,27.3,0.00,North,0,0.0,0.0,66,0.00,,,0.00,WUHU21623XXSP,2013-03-09 02:06:00,
2013-03-08 21:11:00,37.9,27.6,0.00,North,0,0.0,0.0,66,0.00,,,0.00,WUHU21623XXSP,2013-03-09 02:11:00,
2013-03-08 21:16:00,37.9,27.6,0.00,North,0,0.0,0.0,66,0.00,,,0.00,WUHU21623XXSP,2013-03-09 02:16:00,
2013-03-08 21:21:00,37.9,27.6,0.00,North,0,0.0,0.0,66,0.00,,,0.00,WUHU21623XXSP,2013-03-09 02:21:00,
2013-03-08 21:26:00,37.9,27.6,0.00,North,0,0.0,0.0,66,0.00,,,0.00,WUHU21623XXSP,2013-03-09 02:26:00,
2013-03-08 21:31:00,37.9,27.6,0.00,North,0,0.0,0.0,66,0.00,,,0.00,WUHU21623XXSP,2013-03-09 02:31:00,
2013-03-08 21:36:00,37.9,27.6,0.00,North,0,0.0,0.0,66,0.00,,,0.00,WUHU21623XXSP,2013-03-09 02:36:00,
2013-03-08 21:41:00,37.8,27.4,0.00,North,0,0.0,0.0,66,0.00,,,0.00,WUHU21623XXSP,2013-03-09 02:41:00,
2013-03-08 21:46:00,37.8,27.4,0.00,North,0,0.0,0.0,66,0.00,,,0.00,WUHU21623XXSP,2013-03-09 02:46:00,
2013-03-08 21:51:00,37.6,27.2,0.00,North,0,0.0,0.0,66,0.00,,,0.00,WUHU21623XXSP,2013-03-09 02:51:00,
2013-03-08 21:56:00,37.6,27.2,0.00,North,0,0.0,0.0,66,0.00,,,0.00,WUHU21623XXSP,2013-03-09 02:56:00,
2013-03-08 22:03:00,37.2,27.2,0.00,North,0,0.0,0.0,66,0.00,,,0.00,WUHU21623XXSP,2013-03-09 03:03:00,
2013-03-08 22:08:00,37.2,27.3,0.00,North,0,0.0,0.0,67,0.00,,,0.00,WUHU21623XXSP,2013-03-09 03:08:00,
2013-03-08 22:13:00,37.2,27.3,0.00,North,0,0.0,0.0,67,0.00,,,0.00,WUHU21623XXSP,2013-03-09 03:13:00,
2013-03-08 22:18:00,37.0,27.1,0.00,North,0,0.0,0.0,67,0.00,,,0.00,WUHU21623XXSP,2013-03-09 03:18:00,
2013-03-08 22:23:00,36.9,26.9,0.00,North,0,0.0,0.0,67,0.00,,,0.00,WUHU21623XXSP,2013-03-09 03:23:00,
2013-03-08 22:28:00,36.7,26.9,0.00,North,0,0.0,0.0,67,0.00,,,0.00,WUHU21623XXSP,2013-03-09 03:28:00,
2013-03-08 22:33:00,36.5,26.6,0.00,North,0,0.0,0.0,67,0.00,,,0.00,WUHU21623XXSP,2013-03-09 03:33:00,
2013-03-08 22:38:00,36.3,26.4,0.00,North,0,0.0,0.0,68,0.00,,,0.00,WUHU21623XXSP,2013-03-09 03:38:00,
2013-03-08 22:43:00,36.3,26.8,0.00,North,0,0.0,0.0,67,0.00,,,0.00,WUHU21623XXSP,2013-03-09 03:43:00,
2013-03-08 22:48:00,36.1,26.4,0.00,North,0,0.0,0.0,67,0.00,,,0.00,WUHU21623XXSP,2013-03-09 03:48:00,
2013-03-08 22:53:00,36.1,26.6,0.00,North,0,0.0,0.0,68,0.00,,,0.00,WUHU21623XXSP,2013-03-09 03:53:00,
2013-03-08 22:58:00,36.0,26.4,0.00,North,0,0.0,0.0,68,0.00,,,0.00,WUHU21623XXSP,2013-03-09 03:58:00,
2013-03-08 23:03:00,35.8,26.2,0.00,North,0,0.0,0.0,68,0.00,,,0.00,WUHU21623XXSP,2013-03-09 04:03:00,
2013-03-08 23:08:00,35.8,26.2,0.00,North,0,0.0,0.0,68,0.00,,,0.00,WUHU21623XXSP,2013-03-09 04:08:00,
2013-03-08 23:13:00,35.6,26.2,0.00,North,0,0.0,0.0,68,0.00,,,0.00,WUHU21623XXSP,2013-03-09 04:13:00,
2013-03-08 23:18:00,35.6,26.1,0.00,North,0,0.0,0.0,68,0.00,,,0.00,WUHU21623XXSP,2013-03-09 04:18:00,
2013-03-08 23:23:00,35.4,25.9,0.00,North,0,0.0,0.0,68,0.00,,,0.00,WUHU21623XXSP,2013-03-09 04:23:00,
2013-03-08 23:28:00,35.4,25.9,0.00,North,0,0.0,0.0,69,0.00,,,0.00,WUHU21623XXSP,2013-03-09 04:28:00,
2013-03-08 23:33:00,35.2,26.2,0.00,North,0,0.0,0.0,69,0.00,,,0.00,WUHU21623XXSP,2013-03-09 04:33:00,
2013-03-08 23:38:00,34.9,25.7,0.00,North,0,0.0,0.0,69,0.00,,,0.00,WUHU21623XXSP,2013-03-09 04:38:00,
2013-03-08 23:43:00,34.9,25.7,0.00,North,0,0.0,0.0,69,0.00,,,0.00,WUHU21623XXSP,2013-03-09 04:43:00,
2013-03-08 23:48:00,34.9,25.7,0.00,North,0,0.0,0.0,69,0.00,,,0.00,WUHU21623XXSP,2013-03-09 04:48:00,
2013-03-08 23:53:00,34.9,25.7,0.00,North,0,0.0,0.0,69,0.00,,,0.00,WUHU21623XXSP,2013-03-09 04:53:00,
2013-03-08 23:58:00,34.7,25.5,0.00,North,0,0.0,0.0,69,0.00,,,0.00,WUHU21623XXSP,2013-03-09 04:58:00,